Moran, TX (76464)

4:13 PM CDT on July 25, 2014 (GMT -0500)
Rawhide Six Shooter 1.5 miles west of Cisco (KTXCISCO3) Elev 1657 ft | 32.39 °N, 99.01 °W | Change Station

Current weather conditions updated 4 minutes ago

Clear
Clear
95.1 °F
Feels Like 96 °F
N
8.0
Wind Variable Wind from SE
Gusts 10.0 mph

Tomorrow is forecast to be Warmer than today.

Today
High -- | Low -- °F
--% Chance of Precip.
Yesterday
High -- | Low -- °F
Precip. -- in
6:46 AM 8:39 PM
Waning Crescent, 1% visible
Pressure 29.94 in
Visibility 10.0 miles
Clouds Clear
Heat Index 96 °F
Dew Point 62 °F
Humidity 33%
Rainfall 0.00 in
Snow Depth Not available.
UV 9 out of 12
Pollen 6.20 out of 12
Air Quality Not available.
Flu Activity Not available.
METAR KBKD 252055Z AUTO 27003KT 10SM CLR 38/13 A2994 RMK AO2 T03770132

More Conditions Fewer Conditions

Pressure 29.94 in
Visibility 10.0 miles
Clouds Clear
Heat Index 96 °F
Dew Point 62 °F
Humidity 33%
Rainfall 0.00 in
Snow Depth Not available.
UV 9 out of 12
Pollen 6.20 out of 12
Air Quality Not available.
Flu Activity Not available.
METAR KBKD 252055Z AUTO 27003KT 10SM CLR 38/13 A2994 RMK AO2 T03770132

More Conditions Fewer Conditions

10-Day Weather Forecast

Almanac

Astronomy

Jul. 25, 2014 Rise Set
Actual Time 6:46 AM CDT 8:39 PM CDT
Civil Twilight 6:19 AM CDT 9:06 PM CDT
Nautical Twilight 5:46 AM CDT 9:39 PM CDT
Astronomical Twilight 5:10 AM CDT 10:14 PM CDT
Moon 5:45 AM CDT 7:40 PM CDT
Length of Visible Light 14h 47m
Length of Day
13h 53m
Tomorrow will be 1m 19s shorter.
Waning Crescent, 1% of the Moon is Illuminated
Today
Waning Crescent
Jul 26
New
Aug 3
First Quarter
Aug 10
Full
Aug 17
Last Quarter

Today's Extremes

State Highs State Lows

Community

WunderPhotos

Upload Photos

1,737,402 photos uploaded!

Nearby

Snow Depth

Station Depth Elevation
No new snow has been reported.

Earthquake Activity

City Distance Mag. Time & Date
No recent earthquake activity has been reported nearby.
Minimum magnitude displayed is 2.5.

Coastal Water Temperatures

Place Temperature
No Stations Reporting

Nearby Weather Stations

Station Location Temp. Heat Index Dew Point Humidity Wind Precip. Elev Updated Type
MesoWest PUTNAM , Putnam, TX 104 °F 97 °F - - North  at  - 0.00 in / hr 1534 ft 2:50 PM CDT MADIS
MesoWest CISCO , Cisco, TX 91 °F 87 °F - - North  at  - 0.00 in / hr 1613 ft 3:05 PM CDT MADIS
Rawhide Six Shooter 1.5 miles west of Ci, Cisco, TX 95.1 °F 96 °F 62 °F 33% SE  at  8.0 mph 0.00 in / hr 1657 ft 4:09 PM CDT Normal
Albany, Albany, TX 98.4 °F 100 °F 63 °F 31% SSW  at  3.0 mph 0.00 in / hr 1424 ft 4:10 PM CDT Normal
Albany, TX 100.5 °F 102 °F 61 °F 28% SSW  at  6.8 mph 0.00 in / hr 1293 ft 4:13 PM CDT Rapid Fire
LCRA Clyde 6 S, Clyde, TX 93 °F 94 °F 62 °F 36% North  at  - 0.00 in / hr 1911 ft 2:45 PM CDT MADIS

Show More Stations Show Fewer Stations